TimeCDT,TemperatureF,Dew PointF,Humidity,Sea Level PressureIn,VisibilityMPH,Wind Direction,Wind SpeedMPH,Gust SpeedMPH,PrecipitationIn,Events,Conditions,WindDirDegrees,DateUTC
12:53 AM,66.9,51.1,57,29.63,10.0,NNW,9.2,-,N/A,,Clear,340,2013-05-20 05:53:00
1:53 AM,68.0,51.1,55,29.62,10.0,NNW,10.4,-,N/A,,Clear,340,2013-05-20 06:53:00
2:37 AM,66.2,50.0,56,29.69,10.0,NNW,11.5,-,N/A,,Clear,330,2013-05-20 07:37:00
3:53 AM,61.0,51.1,70,29.62,10.0,East,5.8,-,N/A,,Clear,90,2013-05-20 08:53:00
4:53 AM,60.1,52.0,75,29.63,10.0,Calm,Calm,-,N/A,,Clear,0,2013-05-20 09:53:00
7:53 AM,64.0,53.1,67,29.68,10.0,North,11.5,-,N/A,,Clear,350,2013-05-20 12:53:00
8:53 AM,69.1,53.1,57,29.69,10.0,North,9.2,-,N/A,,Clear,10,2013-05-20 13:53:00
10:53 AM,78.1,53.1,42,29.70,10.0,North,11.5,-,N/A,,Clear,10,2013-05-20 15:53:00
11:53 AM,81.0,54.0,39,29.70,10.0,NNE,12.7,-,N/A,,Clear,30,2013-05-20 16:53:00
12:53 PM,82.9,53.1,36,29.69,10.0,ENE,9.2,-,N/A,,Clear,60,2013-05-20 17:53:00
1:53 PM,84.9,51.1,31,29.68,10.0,NNE,11.5,16.1,N/A,,Clear,30,2013-05-20 18:53:00
2:53 PM,87.1,50.0,28,29.66,10.0,North,12.7,18.4,N/A,,Clear,350,2013-05-20 19:53:00
3:53 PM,87.1,51.1,29,29.65,10.0,NNE,10.4,18.4,N/A,,Clear,30,2013-05-20 20:53:00
4:53 PM,88.0,48.9,26,29.63,10.0,North,15.0,24.2,N/A,,Clear,350,2013-05-20 21:53:00
5:53 PM,87.1,50.0,28,29.64,10.0,NNE,11.5,-,N/A,,Clear,30,2013-05-20 22:53:00
6:53 PM,84.0,50.0,31,29.64,10.0,NNE,17.3,-,N/A,,Clear,20,2013-05-20 23:53:00
7:53 PM,80.1,52.0,38,29.67,10.0,NE,13.8,-,N/A,,Clear,40,2013-05-21 00:53:00
8:53 PM,75.0,54.0,48,29.70,10.0,NE,10.4,-,N/A,,Clear,50,2013-05-21 01:53:00
9:53 PM,71.1,55.9,59,29.73,10.0,ENE,9.2,-,N/A,,Clear,70,2013-05-21 02:53:00
10:53 PM,66.9,55.9,68,29.76,10.0,ENE,9.2,-,N/A,,Clear,70,2013-05-21 03:53:00
11:53 PM,66.9,55.9,68,29.77,10.0,ENE,8.1,-,N/A,,Clear,70,2013-05-21 04:53:00